Cape Edgecumbe Buoy AK (46084)

Conditions for Sunday

Daily
Weekly
Monthly
Marine Data Graph

Marine & Boating Location Search

Enter a coastal zip code for marine weather.

General Information

Location: 56.612 North -136.065 West
Buoy Type: 6-meter NOMAD buoy
Buoy Hull: 6N14
Payload: ARES 4.4 payload
Owned by: NDBC
Windspeed: Measured by obtained from anemometer
Sea Surface: Measured by Intake

Weather and Wave Data

Time Temp Humidity Wind Dominant Wave Wind Wave Wave Swell Pressure
  Air
(°F)
Water
(°F)
  Dir Speed
(kts)
Speed
(mph)
Period
(sec)
Height
(ft)
Range
(ft)
Period
(sec)
Height
(ft)
Range
(ft)
Period
(sec)
Height
(ft)
Range
(ft)
Atmo.
(in)
Tend.
(in)
20:50 44 45 86 SW 11.7 13.4 13 11.81 exactly 11.8 5 3.28 2.46 - 4.10 13 11.48 10.66 - 12.30 30.05 +0.07
21:50 43 45 90 SW 5.8 6.7 13 12.14 exactly 12.1 4 1.64 0.82 - 2.46 13 11.48 10.66 - 12.30 30.06 +0.05
22:50 43 45 90 SSW 7.8 8.9 13 12.14 exactly 12.1 4 1.64 0.82 - 2.46 13 11.48 10.66 - 12.30 30.09 +0.05
23:50 43 45 90 SSE 5.8 6.7 13 11.81 exactly 11.8 4 1.64 0.82 - 2.46 13 11.48 10.66 - 12.30 30.09 +0.03
00:50 44 45 83 SSE 9.7 11.2 13 14.11 exactly 14.1 4 1.64 0.82 - 2.46 13 14.76 13.94 - 15.58 30.10 +0.04
01:50 44 45 85 South 11.7 13.4 13 14.11 exactly 14.1 5 3.28 2.46 - 4.10 13 13.12 12.30 - 13.94 30.10 +0.01
02:50 44 45 83 SSE 9.7 11.2 12 12.14 exactly 12.1 5 3.28 2.46 - 4.10 12 11.48 10.66 - 12.30 30.10 +0.02
03:50 44 45 83 SSE 11.7 13.4 12 12.47 exactly 12.5 5 3.28 2.46 - 4.10 12 11.48 10.66 - 12.30 30.10 -
04:50 44 45 82 SSE 15.6 17.9 14 11.48 exactly 11.5 7 4.92 4.10 - 5.74 14 11.48 10.66 - 12.30 30.10 -
05:50 44 45 81 SSE 15.6 17.9 13 10.83 exactly 10.8 5 3.28 2.46 - 4.10 13 9.84 9.02 - 10.66 30.10 -
06:50 44 45 80 SSE 15.6 17.9 12 11.48 exactly 11.5 5 3.28 2.46 - 4.10 12 11.48 10.66 - 12.30 30.11 -
07:50 44 45 83 SE 17.5 20.1 12 11.15 exactly 11.2 6 3.28 2.46 - 4.10 12 9.84 9.02 - 10.66 30.10 -
08:50 44 45 81 SE 21.4 24.6 12 10.17 exactly 10.2 6 4.92 4.10 - 5.74 12 8.20 7.38 - 9.02 30.10 -
09:50 44 45 81 SE 21.4 24.6 11 10.50 exactly 10.5 7 6.56 5.74 - 7.38 11 8.20 7.38 - 9.02 30.12 +0.02
10:50 44 45 79 SE 21.4 24.6 13 11.48 exactly 11.5 5 6.56 5.74 - 7.38 13 9.84 9.02 - 10.66 30.15 +0.05
11:50 44 45 75 SE 23.3 26.8 11 10.83 exactly 10.8 6 6.56 5.74 - 7.38 11 8.20 7.38 - 9.02 30.14 +0.03
12:50 44 45 72 SE 23.3 26.8 12 10.83 exactly 10.8 5 6.56 5.74 - 7.38 12 9.84 9.02 - 10.66 30.13 +0.01
13:50 44 45 74 SE 23.3 26.8 11 10.17 exactly 10.2 5 6.56 5.74 - 7.38 11 8.20 7.38 - 9.02 30.11 -0.04
14:50 44 45 77 SE 25.3 29.1 11 10.17 exactly 10.2 8 6.56 5.74 - 7.38 11 8.20 7.38 - 9.02 30.10 -0.04
15:50 44 45 78 SE 25.3 29.1 14 10.17 exactly 10.2 5 8.20 7.38 - 9.02 14 6.56 5.74 - 7.38 30.11 -0.02
16:50 44 45 80 SE 27.2 31.3 13 10.83 exactly 10.8 6 8.20 7.38 - 9.02 13 6.56 5.74 - 7.38 30.09 -0.02
17:50 44 45 82 SE 27.2 31.3 13 10.83 exactly 10.8 7 8.20 7.38 - 9.02 13 6.56 5.74 - 7.38 30.09 -
18:50 44 45 84 SE 25.3 29.1 11 11.15 exactly 11.2 6 8.20 7.38 - 9.02 11 6.56 5.74 - 7.38 30.10 -
19:50 43 45 92 SE 25.3 29.1 6 10.83 exactly 10.8 6 8.20 7.38 - 9.02 13 6.56 5.74 - 7.38 30.11 +0.02
20:50 44 45 89 SE 25.3 29.1 11 9.84 exactly 9.8 6 8.20 7.38 - 9.02 11 4.92 4.10 - 5.74 30.12 +0.02
21:50 44 45 92 SE 23.3 26.8 11 10.50 exactly 10.5 7 8.20 7.38 - 9.02 11 6.56 5.74 - 7.38 30.12 +0.02
22:50 44 45 93 SE 25.3 29.1 7 10.17 exactly 10.2 7 8.20 7.38 - 9.02 13 4.92 4.10 - 5.74 30.12 -
23:50 44 45 94 SE 23.3 26.8 11 11.48 exactly 11.5 6 8.20 7.38 - 9.02 11 8.20 7.38 - 9.02 30.12 -
00:50 44 45 94 SE 23.3 26.8 11 10.17 exactly 10.2 8 8.20 7.38 - 9.02 11 6.56 5.74 - 7.38 30.12 -
01:50 44 45 94 SE 23.3 26.8 11 11.15 exactly 11.2 7 8.20 7.38 - 9.02 11 8.20 7.38 - 9.02 30.12 -
02:50 44 45 94 SE 23.3 26.8 11 10.50 exactly 10.5 7 6.56 5.74 - 7.38 11 8.20 7.38 - 9.02 30.12 -
03:50 44 45 92 SE 23.3 26.8 11 10.83 exactly 10.8 6 8.20 7.38 - 9.02 11 6.56 5.74 - 7.38 30.11 -0.01

Detailed Wave Spectra

Time Water Depth Wave Height Spectral Peak Period Average Wave Period Sampling Interval Wave Record
20:00 4619 ft 12.01 ft 12.9 sec 8.6 sec 0.6 sec 2400 sec
21:00 4619 ft 11.81 ft 12.9 sec 8.5 sec 0.6 sec 2400 sec
22:00 4619 ft 12.11 ft 12.9 sec 8.7 sec 0.6 sec 2400 sec
23:00 4619 ft 11.98 ft 12.9 sec 8.7 sec 0.6 sec 2400 sec
00:00 4619 ft 11.78 ft 12.9 sec 8.7 sec 0.6 sec 2400 sec
01:00 4619 ft 14.21 ft 12.9 sec 9.6 sec 0.6 sec 2400 sec
02:00 4619 ft 14.07 ft 12.9 sec 9.4 sec 0.6 sec 2400 sec
03:00 4619 ft 12.11 ft 12.1 sec 9.0 sec 0.6 sec 2400 sec
04:00 4619 ft 12.63 ft 12.1 sec 9.2 sec 0.6 sec 2400 sec
05:00 4619 ft 11.58 ft 13.8 sec 9.0 sec 0.6 sec 2400 sec
06:00 4619 ft 10.99 ft 12.9 sec 8.6 sec 0.6 sec 2400 sec
07:00 4619 ft 11.61 ft 12.1 sec 8.4 sec 0.6 sec 2400 sec
08:00 4619 ft 11.15 ft 12.1 sec 7.9 sec 0.6 sec 2400 sec
09:00 4619 ft 10.07 ft 12.1 sec 7.2 sec 0.6 sec 2400 sec
10:00 4619 ft 10.56 ft 11.4 sec 6.7 sec 0.6 sec 2400 sec
11:00 4619 ft 11.45 ft 12.9 sec 7.1 sec 0.6 sec 2400 sec
12:00 4619 ft 10.89 ft 11.4 sec 6.7 sec 0.6 sec 2400 sec
13:00 4619 ft 10.93 ft 12.1 sec 6.8 sec 0.6 sec 2400 sec
14:00 4619 ft 10.20 ft 11.4 sec 6.4 sec 0.6 sec 2400 sec
15:00 4619 ft 10.27 ft 11.4 sec 6.2 sec 0.6 sec 2400 sec
16:00 4619 ft 10.07 ft 13.8 sec 5.8 sec 0.6 sec 2400 sec
17:00 4619 ft 10.79 ft 12.9 sec 6.2 sec 0.6 sec 2400 sec
18:00 4619 ft 10.83 ft 12.9 sec 6.0 sec 0.6 sec 2400 sec
19:00 4619 ft 11.02 ft 11.4 sec 6.0 sec 0.6 sec 2400 sec
20:00 4619 ft 10.83 ft 6.3 sec 6.1 sec 0.6 sec 2400 sec
21:00 4619 ft 9.84 ft 11.4 sec 5.9 sec 0.6 sec 2400 sec
22:00 4619 ft 10.47 ft 11.4 sec 6.1 sec 0.6 sec 2400 sec
23:00 4619 ft 10.30 ft 6.7 sec 5.8 sec 0.6 sec 2400 sec
00:00 4619 ft 11.32 ft 11.4 sec 6.1 sec 0.6 sec 2400 sec
01:00 4619 ft 10.10 ft 10.8 sec 5.8 sec 0.6 sec 2400 sec
02:00 4619 ft 11.19 ft 10.8 sec 6.2 sec 0.6 sec 2400 sec
03:00 4619 ft 10.43 ft 10.8 sec 6.2 sec 0.6 sec 2400 sec